Terminal Aerodrome Forecast
Issued by NWS

Home | Current Version | Previous Version | Text Only | Print | Product List | Glossary On
Versions: 1 2 3 4 5 6 7 8 9 10 11 12 13 14 15 16
472
FTAK31 PAJN 262003 AAA
TAFAKT
TAF AMD
PAKT 262003Z 2620/2718 14011G18KT P6SM -RA BKN040 OVC050
     FM262200 14015G25KT 6SM -RA BR BKN025 OVC035
     FM270000 15015G25KT 4SM -RA BR BKN015 OVC025
     FM270300 15011KT P6SM -SHRA BKN025 OVC035
     FM270600 14008KT P6SM VCSH SCT025 OVC035
      AMD LTD TO CLD VIS AND WIND 2706/2715=

USA.gov is the U.S. government's official web portal to all federal, state and local government web resources and services.